»·PEaware :: DAL2159 KLAX-KLAS

DAL2159 :: KLAX-KLAS

FLIGHT INFORMATION

Flight Status: Arrived
Operator:
Delta Air Lines
More flights by this operator :: More flights under this callsign
Pilot: Vanya D. (11864)
Aircraft: BOEING 737-800
(B738)
More flights by this aircraft type
Origin: KLAX Los Angeles Intl
United States
Destination: KLAS McCarran Intl
United States
More flights between these airports :: More routes between these airports
Route: +ORCKA2 MISEN KEPEC6
File this flight plan on PilotEdge
Remarks: SIMBRIEF / RUSTY PILOT!
Altitude:
(Current/Filed)
27,000ft
Speed:
(Current/Filed)
399kts
Departed: 25-Nov-17 12:54 PM
Arrived: 25-Nov-17 01:45 PM
Distance/Time
Traveled:
206nm/0:51
Distance/Time
To Go:
Arrived

Flight Plot

Page will automatically refresh every two minutes.

Flight plan parsing failed; only flown route is shown


Map Options




Map Legend


Flown Route
Filed Route
Departure Airport
Arrival Airport
Navaid (VOR, NDB)
Fix

Horizontal Profiles

Position Reports

Time Latitude Longitude Heading Altitude Ground
Speed
25-Nov-17 12:33 33.946565 -118.405022 82 134ft 0kts
25-Nov-17 12:34 33.946565 -118.405022 82 134ft 0kts
25-Nov-17 12:35 33.946565 -118.405022 82 134ft 0kts
25-Nov-17 12:36 33.946565 -118.405022 82 134ft 0kts
25-Nov-17 12:37 33.946565 -118.405022 82 134ft 0kts
25-Nov-17 12:38 33.946565 -118.405022 82 134ft 0kts
25-Nov-17 12:39 33.946565 -118.405022 82 134ft 0kts
25-Nov-17 12:40 33.946565 -118.405022 82 134ft 0kts
25-Nov-17 12:41 33.946565 -118.405022 82 134ft 0kts
25-Nov-17 12:42 33.946565 -118.405022 82 134ft 0kts
25-Nov-17 12:43 33.946548 -118.405174 79 134ft 2kts
25-Nov-17 12:44 33.946255 -118.405778 4 134ft 2kts
25-Nov-17 12:45 33.945925 -118.405743 352 134ft 0kts
25-Nov-17 12:46 33.945925 -118.405743 352 134ft 0kts
25-Nov-17 12:47 33.945925 -118.405743 352 134ft 0kts
25-Nov-17 12:48 33.945925 -118.405743 352 134ft 0kts
25-Nov-17 12:49 33.945925 -118.405743 352 134ft 0kts
25-Nov-17 12:50 33.945925 -118.405743 352 134ft 0kts
25-Nov-17 12:51 33.945925 -118.405743 352 134ft 0kts
25-Nov-17 12:52 33.945925 -118.405743 352 134ft 0kts
25-Nov-17 12:53 33.945925 -118.405743 352 134ft 0kts
25-Nov-17 12:54 33.946902 -118.405884 352 134ft 11kts
25-Nov-17 12:55 33.948842 -118.403992 82 134ft 19kts
25-Nov-17 12:56 33.949226 -118.401890 22 134ft 0kts
25-Nov-17 12:57 33.949226 -118.401890 22 134ft 0kts
25-Nov-17 12:58 33.949415 -118.401837 4 134ft 11kts
25-Nov-17 12:59 33.949579 -118.407701 262 134ft 93kts
25-Nov-17 13:00 33.944480 -118.455680 262 2423ft 160kts
25-Nov-17 13:01 33.936165 -118.512357 262 4844ft 207kts
25-Nov-17 13:02 33.926120 -118.595124 264 7178ft 272kts
25-Nov-17 13:03 33.888837 -118.670100 191 10618ft 295kts
25-Nov-17 13:04 33.826156 -118.610603 97 12894ft 335kts
25-Nov-17 13:05 33.869260 -118.520846 22 16012ft 333kts
25-Nov-17 13:06 33.936695 -118.446617 60 18406ft 362kts
25-Nov-17 13:07 33.987232 -118.342126 57 21125ft 369kts
25-Nov-17 13:08 34.044229 -118.235791 53 23229ft 383kts
25-Nov-17 13:09 34.104051 -118.130814 54 23347ft 377kts
25-Nov-17 13:10 34.163383 -118.025568 54 25525ft 371kts
25-Nov-17 13:11 34.221707 -117.922324 53 27345ft 378kts
25-Nov-17 13:12 34.280260 -117.817719 54 27348ft 372kts
25-Nov-17 13:13 34.338340 -117.713631 54 27348ft 374kts
25-Nov-17 13:14 34.400523 -117.607764 52 27354ft 408kts
25-Nov-17 13:15 34.468487 -117.493767 52 27348ft 416kts
25-Nov-17 13:16 34.536122 -117.379708 53 27348ft 418kts
25-Nov-17 13:17 34.604007 -117.265571 52 27348ft 417kts
25-Nov-17 13:18 34.671743 -117.151051 53 27347ft 417kts
25-Nov-17 13:19 34.739427 -117.036214 53 27348ft 418kts
25-Nov-17 13:20 34.807002 -116.921285 53 27347ft 417kts
25-Nov-17 13:21 34.874234 -116.806027 53 27349ft 416kts
25-Nov-17 13:22 34.939935 -116.692522 53 27341ft 388kts
25-Nov-17 13:23 34.997730 -116.590274 53 26822ft 355kts
25-Nov-17 13:24 35.053906 -116.490271 53 25092ft 354kts
25-Nov-17 13:25 35.110007 -116.393856 46 24350ft 345kts
25-Nov-17 13:26 35.174379 -116.313018 43 24199ft 313kts
25-Nov-17 13:27 35.197940 -116.283659 43 23118ft 327kts
25-Nov-17 13:28 35.237889 -116.233659 44 21458ft 350kts
25-Nov-17 13:29 35.304862 -116.149439 44 20294ft 341kts
25-Nov-17 13:30 35.370237 -116.067231 44 19046ft 334kts
25-Nov-17 13:31 35.434714 -115.985993 44 17808ft 328kts
25-Nov-17 13:32 35.497895 -115.906333 44 16425ft 323kts
25-Nov-17 13:33 35.559305 -115.828321 44 15238ft 314kts
25-Nov-17 13:34 35.619671 -115.751324 44 14076ft 309kts
25-Nov-17 13:35 35.678827 -115.675781 44 13035ft 302kts
25-Nov-17 13:36 35.737122 -115.601286 43 13002ft 304kts
25-Nov-17 13:37 35.815092 -115.571847 2 12999ft 300kts
25-Nov-17 13:38 35.898773 -115.567575 2 13000ft 301kts
25-Nov-17 13:39 35.977874 -115.543766 45 12867ft 305kts
25-Nov-17 13:40 36.008842 -115.445887 67 11748ft 304kts
25-Nov-17 13:41 36.029368 -115.349956 88 10688ft 282kts
25-Nov-17 13:42 36.022518 -115.255342 92 9604ft 273kts
25-Nov-17 13:43 36.015795 -115.162960 93 8719ft 268kts
25-Nov-17 13:44 36.010141 -115.078009 91 8000ft 223kts
25-Nov-17 13:45 36.007202 -115.002167 71 6405ft 212kts
25-Nov-17 13:46 36.052481 -114.979332 8 5212ft 168kts
25-Nov-17 13:47 36.075348 -115.014313 265 3632ft 163kts
25-Nov-17 13:48 36.073388 -115.068509 271 3019ft 157kts
25-Nov-17 13:49 36.073590 -115.121690 271 2203ft 155kts
25-Nov-17 13:50 36.073668 -115.147811 274 2123ft 23kts
25-Nov-17 13:51 36.075409 -115.151322 331 2123ft 13kts
25-Nov-17 13:52 36.078237 -115.151026 4 2123ft 13kts
25-Nov-17 13:53 36.078414 -115.145873 93 2123ft 23kts
25-Nov-17 13:54 36.078268 -115.138004 89 2123ft 22kts
25-Nov-17 13:55 36.080371 -115.133778 357 2123ft 15kts
25-Nov-17 13:56 36.081550 -115.134734 312 2123ft 12kts
25-Nov-17 13:57 36.081737 -115.136152 222 2123ft 0kts
25-Nov-17 13:58 36.081737 -115.136152 222 2123ft 0kts

Navigation Log

Ident Type
Flight plan parsing failed, navigation log unavailable